sensor_id;sensor_type;location;lat;lon;timestamp;temperature;humidity
26099;DHT22;13860;52.370;6.764;2024-02-26T00:01:39;6.30;84.00
26099;DHT22;13860;52.370;6.764;2024-02-26T00:04:46;6.30;84.10
26099;DHT22;13860;52.370;6.764;2024-02-26T00:07:54;6.30;84.00
26099;DHT22;13860;52.370;6.764;2024-02-26T00:11:02;6.20;84.00
26099;DHT22;13860;52.370;6.764;2024-02-26T00:14:09;6.20;84.10
26099;DHT22;13860;52.370;6.764;2024-02-26T00:17:17;6.20;84.10
26099;DHT22;13860;52.370;6.764;2024-02-26T00:20:25;6.20;84.20
26099;DHT22;13860;52.370;6.764;2024-02-26T00:23:30;6.10;84.10
26099;DHT22;13860;52.370;6.764;2024-02-26T00:26:38;6.20;84.20
26099;DHT22;13860;52.370;6.764;2024-02-26T00:29:44;6.20;84.20
26099;DHT22;13860;52.370;6.764;2024-02-26T00:32:54;6.20;84.20
26099;DHT22;13860;52.370;6.764;2024-02-26T00:35:59;6.20;84.20
26099;DHT22;13860;52.370;6.764;2024-02-26T00:39:07;6.10;84.10
26099;DHT22;13860;52.370;6.764;2024-02-26T00:42:13;6.10;84.10
26099;DHT22;13860;52.370;6.764;2024-02-26T00:45:20;6.10;84.20
26099;DHT22;13860;52.370;6.764;2024-02-26T00:48:30;6.10;84.10
26099;DHT22;13860;52.370;6.764;2024-02-26T00:51:37;6.10;84.20
26099;DHT22;13860;52.370;6.764;2024-02-26T00:54:43;6.10;84.10
26099;DHT22;13860;52.370;6.764;2024-02-26T00:57:51;6.10;84.10
26099;DHT22;13860;52.370;6.764;2024-02-26T01:00:56;6.10;84.10
26099;DHT22;13860;52.370;6.764;2024-02-26T01:04:06;6.10;84.10
26099;DHT22;13860;52.370;6.764;2024-02-26T01:07:12;6.00;84.10
26099;DHT22;13860;52.370;6.764;2024-02-26T01:10:20;6.00;84.10
26099;DHT22;13860;52.370;6.764;2024-02-26T01:13:26;6.00;84.10
26099;DHT22;13860;52.370;6.764;2024-02-26T01:16:34;6.00;84.10
26099;DHT22;13860;52.370;6.764;2024-02-26T01:19:42;6.00;84.10
26099;DHT22;13860;52.370;6.764;2024-02-26T01:22:49;6.00;84.10
26099;DHT22;13860;52.370;6.764;2024-02-26T01:25:56;5.90;84.00
26099;DHT22;13860;52.370;6.764;2024-02-26T01:29:03;5.90;84.10
26099;DHT22;13860;52.370;6.764;2024-02-26T01:32:09;5.90;84.10
26099;DHT22;13860;52.370;6.764;2024-02-26T01:35:20;5.90;84.20
26099;DHT22;13860;52.370;6.764;2024-02-26T01:38:25;5.90;84.10
26099;DHT22;13860;52.370;6.764;2024-02-26T01:41:33;5.80;84.00
26099;DHT22;13860;52.370;6.764;2024-02-26T01:44:38;5.80;84.10
26099;DHT22;13860;52.370;6.764;2024-02-26T01:47:48;5.80;84.10
26099;DHT22;13860;52.370;6.764;2024-02-26T01:50:56;5.80;84.10
26099;DHT22;13860;52.370;6.764;2024-02-26T01:54:04;5.80;84.20
26099;DHT22;13860;52.370;6.764;2024-02-26T01:57:11;5.70;84.20
26099;DHT22;13860;52.370;6.764;2024-02-26T02:00:20;5.70;84.20
26099;DHT22;13860;52.370;6.764;2024-02-26T02:03:26;5.70;84.20
26099;DHT22;13860;52.370;6.764;2024-02-26T02:06:37;5.70;84.20
26099;DHT22;13860;52.370;6.764;2024-02-26T02:09:43;5.60;84.20
26099;DHT22;13860;52.370;6.764;2024-02-26T02:12:51;5.60;84.80
26099;DHT22;13860;52.370;6.764;2024-02-26T02:15:57;5.60;84.20
26099;DHT22;13860;52.370;6.764;2024-02-26T02:19:04;5.60;84.30
26099;DHT22;13860;52.370;6.764;2024-02-26T02:22:13;5.60;84.30
26099;DHT22;13860;52.370;6.764;2024-02-26T02:25:20;5.60;84.30
26099;DHT22;13860;52.370;6.764;2024-02-26T02:28:26;5.60;84.30
26099;DHT22;13860;52.370;6.764;2024-02-26T02:31:34;5.60;84.30
26099;DHT22;13860;52.370;6.764;2024-02-26T02:34:40;5.60;84.40
26099;DHT22;13860;52.370;6.764;2024-02-26T02:37:52;5.60;84.40
26099;DHT22;13860;52.370;6.764;2024-02-26T02:40:58;5.60;84.50
26099;DHT22;13860;52.370;6.764;2024-02-26T02:44:06;5.60;84.40
26099;DHT22;13860;52.370;6.764;2024-02-26T02:47:12;5.60;84.40
26099;DHT22;13860;52.370;6.764;2024-02-26T02:50:19;5.60;84.40
26099;DHT22;13860;52.370;6.764;2024-02-26T02:53:27;5.60;84.50
26099;DHT22;13860;52.370;6.764;2024-02-26T02:56:35;5.60;84.40
26099;DHT22;13860;52.370;6.764;2024-02-26T02:59:41;5.60;84.50
26099;DHT22;13860;52.370;6.764;2024-02-26T03:02:48;5.60;84.40
26099;DHT22;13860;52.370;6.764;2024-02-26T03:05:54;5.60;84.40
26099;DHT22;13860;52.370;6.764;2024-02-26T03:09:05;5.60;84.40
26099;DHT22;13860;52.370;6.764;2024-02-26T03:12:10;5.60;84.40
26099;DHT22;13860;52.370;6.764;2024-02-26T03:15:18;5.60;84.40
26099;DHT22;13860;52.370;6.764;2024-02-26T03:18:24;5.60;84.40
26099;DHT22;13860;52.370;6.764;2024-02-26T03:21:31;5.60;84.40
26099;DHT22;13860;52.370;6.764;2024-02-26T03:24:39;5.60;84.40
26099;DHT22;13860;52.370;6.764;2024-02-26T03:27:47;5.60;84.40
26099;DHT22;13860;52.370;6.764;2024-02-26T03:30:52;5.60;84.50
26099;DHT22;13860;52.370;6.764;2024-02-26T03:34:00;5.60;84.50
26099;DHT22;13860;52.370;6.764;2024-02-26T03:37:06;5.60;85.10
26099;DHT22;13860;52.370;6.764;2024-02-26T03:40:18;5.60;84.40
26099;DHT22;13860;52.370;6.764;2024-02-26T03:43:23;5.60;84.50
26099;DHT22;13860;52.370;6.764;2024-02-26T03:46:30;5.60;84.50
26099;DHT22;13860;52.370;6.764;2024-02-26T03:49:36;5.60;84.50
26099;DHT22;13860;52.370;6.764;2024-02-26T03:52:44;5.60;84.50
26099;DHT22;13860;52.370;6.764;2024-02-26T03:55:52;5.60;84.50
26099;DHT22;13860;52.370;6.764;2024-02-26T03:59:00;5.60;84.50
26099;DHT22;13860;52.370;6.764;2024-02-26T04:02:06;5.60;84.50
26099;DHT22;13860;52.370;6.764;2024-02-26T04:05:14;5.60;84.60
26099;DHT22;13860;52.370;6.764;2024-02-26T04:08:19;5.60;84.60
26099;DHT22;13860;52.370;6.764;2024-02-26T04:11:29;5.60;84.60
26099;DHT22;13860;52.370;6.764;2024-02-26T04:14:36;5.60;84.60
26099;DHT22;13860;52.370;6.764;2024-02-26T04:17:43;5.70;84.70
26099;DHT22;13860;52.370;6.764;2024-02-26T04:20:49;5.70;84.70
26099;DHT22;13860;52.370;6.764;2024-02-26T04:23:56;5.70;84.70
26099;DHT22;13860;52.370;6.764;2024-02-26T04:27:06;5.70;84.70
26099;DHT22;13860;52.370;6.764;2024-02-26T04:30:14;5.70;84.60
26099;DHT22;13860;52.370;6.764;2024-02-26T04:33:20;5.70;84.60
26099;DHT22;13860;52.370;6.764;2024-02-26T04:36:28;5.70;84.60
26099;DHT22;13860;52.370;6.764;2024-02-26T04:39:34;5.70;84.60
26099;DHT22;13860;52.370;6.764;2024-02-26T04:42:44;5.80;84.70
26099;DHT22;13860;52.370;6.764;2024-02-26T04:45:49;5.70;84.70
26099;DHT22;13860;52.370;6.764;2024-02-26T04:48:57;5.70;84.70
26099;DHT22;13860;52.370;6.764;2024-02-26T04:52:03;5.70;84.70
26099;DHT22;13860;52.370;6.764;2024-02-26T04:55:11;5.80;84.80
26099;DHT22;13860;52.370;6.764;2024-02-26T04:58:19;5.80;84.70
26099;DHT22;13860;52.370;6.764;2024-02-26T05:01:26;5.80;84.70
26099;DHT22;13860;52.370;6.764;2024-02-26T05:04:32;5.70;84.70
26099;DHT22;13860;52.370;6.764;2024-02-26T05:07:40;5.80;84.80
26099;DHT22;13860;52.370;6.764;2024-02-26T05:10:46;5.80;84.80
26099;DHT22;13860;52.370;6.764;2024-02-26T05:13:56;5.80;84.80
26099;DHT22;13860;52.370;6.764;2024-02-26T05:17:02;5.80;84.80
26099;DHT22;13860;52.370;6.764;2024-02-26T05:20:10;5.80;84.80
26099;DHT22;13860;52.370;6.764;2024-02-26T05:23:16;5.80;84.80
26099;DHT22;13860;52.370;6.764;2024-02-26T05:26:27;5.80;84.80
26099;DHT22;13860;52.370;6.764;2024-02-26T05:29:35;5.80;84.80
26099;DHT22;13860;52.370;6.764;2024-02-26T05:32:42;5.80;84.80
26099;DHT22;13860;52.370;6.764;2024-02-26T05:35:48;5.80;84.80
26099;DHT22;13860;52.370;6.764;2024-02-26T05:38:55;5.80;84.80
26099;DHT22;13860;52.370;6.764;2024-02-26T05:42:01;5.80;84.80
26099;DHT22;13860;52.370;6.764;2024-02-26T05:45:11;5.80;84.80
26099;DHT22;13860;52.370;6.764;2024-02-26T05:48:17;5.90;84.90
26099;DHT22;13860;52.370;6.764;2024-02-26T05:51:25;5.80;84.80
26099;DHT22;13860;52.370;6.764;2024-02-26T05:54:30;5.80;84.90
26099;DHT22;13860;52.370;6.764;2024-02-26T05:57:38;5.80;84.80
26099;DHT22;13860;52.370;6.764;2024-02-26T06:00:46;5.80;84.90
26099;DHT22;13860;52.370;6.764;2024-02-26T06:03:53;5.90;84.90
26099;DHT22;13860;52.370;6.764;2024-02-26T06:06:59;5.90;84.90
26099;DHT22;13860;52.370;6.764;2024-02-26T06:10:07;5.90;84.90
26099;DHT22;13860;52.370;6.764;2024-02-26T06:13:13;5.90;84.80
26099;DHT22;13860;52.370;6.764;2024-02-26T06:16:23;5.90;84.80
26099;DHT22;13860;52.370;6.764;2024-02-26T06:19:28;5.90;84.80
26099;DHT22;13860;52.370;6.764;2024-02-26T06:22:36;5.90;84.80
26099;DHT22;13860;52.370;6.764;2024-02-26T06:25:42;5.90;84.90
26099;DHT22;13860;52.370;6.764;2024-02-26T06:28:50;5.90;84.90
26099;DHT22;13860;52.370;6.764;2024-02-26T06:31:59;5.90;84.90
26099;DHT22;13860;52.370;6.764;2024-02-26T06:35:07;5.90;84.90
26099;DHT22;13860;52.370;6.764;2024-02-26T06:38:14;5.90;85.00
26099;DHT22;13860;52.370;6.764;2024-02-26T06:41:22;5.90;85.00
26099;DHT22;13860;52.370;6.764;2024-02-26T06:44:30;5.90;84.90
26099;DHT22;13860;52.370;6.764;2024-02-26T06:47:44;5.90;84.90
26099;DHT22;13860;52.370;6.764;2024-02-26T06:50:49;5.90;84.90
26099;DHT22;13860;52.370;6.764;2024-02-26T06:53:58;5.90;84.90
26099;DHT22;13860;52.370;6.764;2024-02-26T06:57:04;6.00;85.00
26099;DHT22;13860;52.370;6.764;2024-02-26T07:00:13;6.00;85.00
26099;DHT22;13860;52.370;6.764;2024-02-26T07:03:22;5.90;85.00
26099;DHT22;13860;52.370;6.764;2024-02-26T07:06:30;5.90;85.00
26099;DHT22;13860;52.370;6.764;2024-02-26T07:09:36;5.90;85.00
26099;DHT22;13860;52.370;6.764;2024-02-26T07:12:43;5.90;85.00
26099;DHT22;13860;52.370;6.764;2024-02-26T07:15:49;5.90;85.00
26099;DHT22;13860;52.370;6.764;2024-02-26T07:18:59;6.00;85.10
26099;DHT22;13860;52.370;6.764;2024-02-26T07:22:05;5.90;85.00
26099;DHT22;13860;52.370;6.764;2024-02-26T07:25:12;5.90;85.00
26099;DHT22;13860;52.370;6.764;2024-02-26T07:28:18;5.90;85.00
26099;DHT22;13860;52.370;6.764;2024-02-26T07:31:26;5.90;85.10
26099;DHT22;13860;52.370;6.764;2024-02-26T07:34:34;5.90;85.10
26099;DHT22;13860;52.370;6.764;2024-02-26T07:37:48;5.90;85.00
26099;DHT22;13860;52.370;6.764;2024-02-26T07:40:54;5.90;85.10
26099;DHT22;13860;52.370;6.764;2024-02-26T07:44:07;5.90;85.00
26099;DHT22;13860;52.370;6.764;2024-02-26T07:47:12;5.90;85.00
26099;DHT22;13860;52.370;6.764;2024-02-26T07:50:22;5.90;85.30
26099;DHT22;13860;52.370;6.764;2024-02-26T07:53:28;6.00;85.10
26099;DHT22;13860;52.370;6.764;2024-02-26T07:56:35;5.90;85.10
26099;DHT22;13860;52.370;6.764;2024-02-26T07:59:41;5.90;85.10
26099;DHT22;13860;52.370;6.764;2024-02-26T08:02:49;5.90;85.10
26099;DHT22;13860;52.370;6.764;2024-02-26T08:05:57;5.90;85.10
26099;DHT22;13860;52.370;6.764;2024-02-26T08:09:05;6.00;85.30
26099;DHT22;13860;52.370;6.764;2024-02-26T08:12:10;5.90;85.20
26099;DHT22;13860;52.370;6.764;2024-02-26T08:15:18;5.90;85.20
26099;DHT22;13860;52.370;6.764;2024-02-26T08:18:24;6.00;85.30
26099;DHT22;13860;52.370;6.764;2024-02-26T08:21:34;6.00;85.30
26099;DHT22;13860;52.370;6.764;2024-02-26T08:24:40;6.00;85.20
26099;DHT22;13860;52.370;6.764;2024-02-26T08:27:47;6.00;85.30
26099;DHT22;13860;52.370;6.764;2024-02-26T08:30:53;6.00;85.30
26099;DHT22;13860;52.370;6.764;2024-02-26T08:34:00;6.00;85.30
26099;DHT22;13860;52.370;6.764;2024-02-26T08:37:09;6.10;85.40
26099;DHT22;13860;52.370;6.764;2024-02-26T08:40:16;6.10;85.40
26099;DHT22;13860;52.370;6.764;2024-02-26T08:43:22;6.10;85.40
26099;DHT22;13860;52.370;6.764;2024-02-26T08:46:29;6.10;85.30
26099;DHT22;13860;52.370;6.764;2024-02-26T08:49:35;6.10;85.30
26099;DHT22;13860;52.370;6.764;2024-02-26T08:52:45;6.20;85.40
26099;DHT22;13860;52.370;6.764;2024-02-26T08:55:53;6.20;85.30
26099;DHT22;13860;52.370;6.764;2024-02-26T08:59:00;6.20;85.40
26099;DHT22;13860;52.370;6.764;2024-02-26T09:02:07;6.20;85.40
26099;DHT22;13860;52.370;6.764;2024-02-26T09:05:15;6.30;85.40
26099;DHT22;13860;52.370;6.764;2024-02-26T09:08:24;6.30;86.00
26099;DHT22;13860;52.370;6.764;2024-02-26T09:11:31;6.30;85.40
26099;DHT22;13860;52.370;6.764;2024-02-26T09:14:36;6.30;85.40
26099;DHT22;13860;52.370;6.764;2024-02-26T09:17:44;6.30;85.40
26099;DHT22;13860;52.370;6.764;2024-02-26T09:20:52;6.40;85.40
26099;DHT22;13860;52.370;6.764;2024-02-26T09:24:03;6.40;85.40
26099;DHT22;13860;52.370;6.764;2024-02-26T09:27:09;6.40;85.40
26099;DHT22;13860;52.370;6.764;2024-02-26T09:30:17;6.40;85.40
26099;DHT22;13860;52.370;6.764;2024-02-26T09:33:22;6.40;85.40
26099;DHT22;13860;52.370;6.764;2024-02-26T09:36:30;6.40;85.40
26099;DHT22;13860;52.370;6.764;2024-02-26T09:39:53;6.50;85.40
26099;DHT22;13860;52.370;6.764;2024-02-26T09:43:01;6.50;85.40
26099;DHT22;13860;52.370;6.764;2024-02-26T09:46:10;6.50;85.30
26099;DHT22;13860;52.370;6.764;2024-02-26T09:49:20;6.50;85.40
26099;DHT22;13860;52.370;6.764;2024-02-26T09:52:28;6.50;85.30
26099;DHT22;13860;52.370;6.764;2024-02-26T09:55:40;6.50;85.30
26099;DHT22;13860;52.370;6.764;2024-02-26T09:58:46;6.60;85.40
26099;DHT22;13860;52.370;6.764;2024-02-26T10:01:58;6.60;85.40
26099;DHT22;13860;52.370;6.764;2024-02-26T10:05:08;6.60;85.40
26099;DHT22;13860;52.370;6.764;2024-02-26T10:08:17;6.60;85.30
26099;DHT22;13860;52.370;6.764;2024-02-26T10:11:28;6.60;85.30
26099;DHT22;13860;52.370;6.764;2024-02-26T10:14:39;6.70;85.30
26099;DHT22;13860;52.370;6.764;2024-02-26T10:17:45;6.70;85.30
26099;DHT22;13860;52.370;6.764;2024-02-26T10:20:59;6.70;85.30
26099;DHT22;13860;52.370;6.764;2024-02-26T10:24:13;6.70;85.30
26099;DHT22;13860;52.370;6.764;2024-02-26T10:27:23;6.70;85.40
26099;DHT22;13860;52.370;6.764;2024-02-26T10:30:29;6.70;85.40
26099;DHT22;13860;52.370;6.764;2024-02-26T10:33:37;6.70;85.30
26099;DHT22;13860;52.370;6.764;2024-02-26T10:36:45;6.80;85.40
26099;DHT22;13860;52.370;6.764;2024-02-26T10:39:57;6.80;85.40
26099;DHT22;13860;52.370;6.764;2024-02-26T10:43:06;6.80;85.40
26099;DHT22;13860;52.370;6.764;2024-02-26T10:46:14;6.80;85.40
26099;DHT22;13860;52.370;6.764;2024-02-26T10:49:20;6.80;85.40
26099;DHT22;13860;52.370;6.764;2024-02-26T10:52:31;6.90;85.40
26099;DHT22;13860;52.370;6.764;2024-02-26T10:55:37;6.90;85.40
26099;DHT22;13860;52.370;6.764;2024-02-26T10:58:48;6.90;85.40
26099;DHT22;13860;52.370;6.764;2024-02-26T11:01:54;6.90;85.40
26099;DHT22;13860;52.370;6.764;2024-02-26T11:05:03;6.90;85.40
26099;DHT22;13860;52.370;6.764;2024-02-26T11:08:10;6.90;85.30
26099;DHT22;13860;52.370;6.764;2024-02-26T11:11:19;7.00;85.40
26099;DHT22;13860;52.370;6.764;2024-02-26T11:14:29;7.00;85.30
26099;DHT22;13860;52.370;6.764;2024-02-26T11:17:38;7.00;85.30
26099;DHT22;13860;52.370;6.764;2024-02-26T11:20:46;7.00;85.40
26099;DHT22;13860;52.370;6.764;2024-02-26T11:23:53;7.00;85.30
26099;DHT22;13860;52.370;6.764;2024-02-26T11:27:01;7.00;85.50
26099;DHT22;13860;52.370;6.764;2024-02-26T11:30:13;7.00;85.50
26099;DHT22;13860;52.370;6.764;2024-02-26T11:33:20;7.00;85.30
26099;DHT22;13860;52.370;6.764;2024-02-26T11:36:28;7.00;85.30
26099;DHT22;13860;52.370;6.764;2024-02-26T11:39:33;7.00;85.30
26099;DHT22;13860;52.370;6.764;2024-02-26T11:42:44;7.10;85.30
26099;DHT22;13860;52.370;6.764;2024-02-26T11:45:55;7.10;85.30
26099;DHT22;13860;52.370;6.764;2024-02-26T11:49:30;7.10;85.30
26099;DHT22;13860;52.370;6.764;2024-02-26T11:52:37;7.10;85.30
26099;DHT22;13860;52.370;6.764;2024-02-26T11:55:46;7.10;85.30
26099;DHT22;13860;52.370;6.764;2024-02-26T11:58:59;7.10;85.30
26099;DHT22;13860;52.370;6.764;2024-02-26T12:02:10;7.10;85.40
26099;DHT22;13860;52.370;6.764;2024-02-26T12:05:16;7.10;85.30
26099;DHT22;13860;52.370;6.764;2024-02-26T12:08:25;7.10;85.30
26099;DHT22;13860;52.370;6.764;2024-02-26T12:11:30;7.20;85.40
26099;DHT22;13860;52.370;6.764;2024-02-26T12:14:39;7.20;85.40
26099;DHT22;13860;52.370;6.764;2024-02-26T12:17:49;7.20;85.40
26099;DHT22;13860;52.370;6.764;2024-02-26T12:20:58;7.20;85.40
26099;DHT22;13860;52.370;6.764;2024-02-26T12:24:12;7.20;85.40
26099;DHT22;13860;52.370;6.764;2024-02-26T12:27:20;7.30;85.40
26099;DHT22;13860;52.370;6.764;2024-02-26T12:30:26;7.30;86.00
26099;DHT22;13860;52.370;6.764;2024-02-26T12:33:40;7.30;85.40
26099;DHT22;13860;52.370;6.764;2024-02-26T12:36:46;7.30;85.30
26099;DHT22;13860;52.370;6.764;2024-02-26T12:39:53;7.40;85.40
26099;DHT22;13860;52.370;6.764;2024-02-26T12:42:59;7.40;85.40
26099;DHT22;13860;52.370;6.764;2024-02-26T12:46:10;7.40;85.30
26099;DHT22;13860;52.370;6.764;2024-02-26T12:49:20;7.40;85.30
26099;DHT22;13860;52.370;6.764;2024-02-26T12:52:30;7.50;85.40
26099;DHT22;13860;52.370;6.764;2024-02-26T12:55:36;7.50;85.30
26099;DHT22;13860;52.370;6.764;2024-02-26T12:58:45;7.50;85.30
26099;DHT22;13860;52.370;6.764;2024-02-26T13:01:51;7.50;85.20
26099;DHT22;13860;52.370;6.764;2024-02-26T13:05:02;7.50;85.20
26099;DHT22;13860;52.370;6.764;2024-02-26T13:08:08;7.60;85.20
26099;DHT22;13860;52.370;6.764;2024-02-26T13:11:15;7.50;85.20
26099;DHT22;13860;52.370;6.764;2024-02-26T13:14:21;7.60;85.10
26099;DHT22;13860;52.370;6.764;2024-02-26T13:17:31;7.60;85.10
26099;DHT22;13860;52.370;6.764;2024-02-26T13:20:40;7.60;85.10
26099;DHT22;13860;52.370;6.764;2024-02-26T13:23:51;7.60;85.10
26099;DHT22;13860;52.370;6.764;2024-02-26T13:26:57;7.60;85.10
26099;DHT22;13860;52.370;6.764;2024-02-26T13:30:09;7.60;85.00
26099;DHT22;13860;52.370;6.764;2024-02-26T13:33:15;7.60;85.00
26099;DHT22;13860;52.370;6.764;2024-02-26T13:36:26;7.60;85.60
26099;DHT22;13860;52.370;6.764;2024-02-26T13:39:31;7.60;84.90
26099;DHT22;13860;52.370;6.764;2024-02-26T13:42:43;7.60;84.90
26099;DHT22;13860;52.370;6.764;2024-02-26T13:45:50;7.60;84.90
26099;DHT22;13860;52.370;6.764;2024-02-26T13:48:58;7.60;84.80
26099;DHT22;13860;52.370;6.764;2024-02-26T13:52:06;7.60;84.80
26099;DHT22;13860;52.370;6.764;2024-02-26T13:55:14;7.60;84.90
26099;DHT22;13860;52.370;6.764;2024-02-26T13:58:20;7.60;84.80
26099;DHT22;13860;52.370;6.764;2024-02-26T14:01:28;7.70;84.90
26099;DHT22;13860;52.370;6.764;2024-02-26T14:04:36;7.70;84.80
26099;DHT22;13860;52.370;6.764;2024-02-26T14:07:47;7.70;85.40
26099;DHT22;13860;52.370;6.764;2024-02-26T14:10:54;7.70;84.80
26099;DHT22;13860;52.370;6.764;2024-02-26T14:14:02;7.70;84.80
26099;DHT22;13860;52.370;6.764;2024-02-26T14:17:08;7.70;84.70
26099;DHT22;13860;52.370;6.764;2024-02-26T14:20:17;7.80;84.80
26099;DHT22;13860;52.370;6.764;2024-02-26T14:23:25;7.80;84.70
26099;DHT22;13860;52.370;6.764;2024-02-26T14:26:32;7.80;84.70
26099;DHT22;13860;52.370;6.764;2024-02-26T14:29:39;7.80;84.70
26099;DHT22;13860;52.370;6.764;2024-02-26T14:32:47;7.80;85.30
26099;DHT22;13860;52.370;6.764;2024-02-26T14:35:53;7.80;84.60
26099;DHT22;13860;52.370;6.764;2024-02-26T14:39:03;7.90;84.70
26099;DHT22;13860;52.370;6.764;2024-02-26T14:42:13;7.90;84.70
26099;DHT22;13860;52.370;6.764;2024-02-26T14:45:22;7.90;84.60
26099;DHT22;13860;52.370;6.764;2024-02-26T14:48:28;7.90;84.50
26099;DHT22;13860;52.370;6.764;2024-02-26T14:51:36;7.90;84.50
26099;DHT22;13860;52.370;6.764;2024-02-26T14:54:44;7.90;84.50
26099;DHT22;13860;52.370;6.764;2024-02-26T14:57:53;8.00;84.40
26099;DHT22;13860;52.370;6.764;2024-02-26T15:00:58;7.90;84.40
26099;DHT22;13860;52.370;6.764;2024-02-26T15:04:06;8.00;84.40
26099;DHT22;13860;52.370;6.764;2024-02-26T15:07:11;8.00;84.40
26099;DHT22;13860;52.370;6.764;2024-02-26T15:10:23;8.00;84.40
26099;DHT22;13860;52.370;6.764;2024-02-26T15:13:28;8.00;84.40
26099;DHT22;13860;52.370;6.764;2024-02-26T15:16:36;8.00;84.30
26099;DHT22;13860;52.370;6.764;2024-02-26T15:19:43;8.00;84.90
26099;DHT22;13860;52.370;6.764;2024-02-26T15:22:50;8.00;84.30
26099;DHT22;13860;52.370;6.764;2024-02-26T15:25:59;8.00;84.30
26099;DHT22;13860;52.370;6.764;2024-02-26T15:29:08;8.00;84.20
26099;DHT22;13860;52.370;6.764;2024-02-26T15:32:13;8.00;84.20
26099;DHT22;13860;52.370;6.764;2024-02-26T15:35:21;8.00;84.20
26099;DHT22;13860;52.370;6.764;2024-02-26T15:38:26;7.90;84.20
26099;DHT22;13860;52.370;6.764;2024-02-26T15:41:37;7.90;84.20
26099;DHT22;13860;52.370;6.764;2024-02-26T15:44:43;7.90;84.20
26099;DHT22;13860;52.370;6.764;2024-02-26T15:47:51;7.90;84.10
26099;DHT22;13860;52.370;6.764;2024-02-26T15:50:57;7.90;84.20
26099;DHT22;13860;52.370;6.764;2024-02-26T15:54:04;7.90;84.20
26099;DHT22;13860;52.370;6.764;2024-02-26T15:57:14;7.90;84.10
26099;DHT22;13860;52.370;6.764;2024-02-26T16:00:22;7.90;84.10
26099;DHT22;13860;52.370;6.764;2024-02-26T16:03:27;7.90;84.10
26099;DHT22;13860;52.370;6.764;2024-02-26T16:06:37;7.90;84.70
26099;DHT22;13860;52.370;6.764;2024-02-26T16:09:50;7.80;84.00
26099;DHT22;13860;52.370;6.764;2024-02-26T16:13:01;7.80;84.00
26099;DHT22;13860;52.370;6.764;2024-02-26T16:16:11;7.80;84.10
26099;DHT22;13860;52.370;6.764;2024-02-26T16:19:20;7.80;84.00
26099;DHT22;13860;52.370;6.764;2024-02-26T16:22:26;7.80;84.10
26099;DHT22;13860;52.370;6.764;2024-02-26T16:25:36;7.80;84.00
26099;DHT22;13860;52.370;6.764;2024-02-26T16:28:44;7.80;84.00
26099;DHT22;13860;52.370;6.764;2024-02-26T16:31:52;7.70;83.90
26099;DHT22;13860;52.370;6.764;2024-02-26T16:34:59;7.70;84.00
26099;DHT22;13860;52.370;6.764;2024-02-26T16:38:07;7.70;84.00
26099;DHT22;13860;52.370;6.764;2024-02-26T16:41:12;7.70;84.00
26099;DHT22;13860;52.370;6.764;2024-02-26T16:44:23;7.70;84.00
26099;DHT22;13860;52.370;6.764;2024-02-26T16:47:28;7.60;83.80
26099;DHT22;13860;52.370;6.764;2024-02-26T16:50:36;7.60;84.00
26099;DHT22;13860;52.370;6.764;2024-02-26T16:53:41;7.60;84.00
26099;DHT22;13860;52.370;6.764;2024-02-26T16:56:49;7.50;83.90
26099;DHT22;13860;52.370;6.764;2024-02-26T16:59:57;7.50;83.90
26099;DHT22;13860;52.370;6.764;2024-02-26T17:03:05;7.50;83.90
26099;DHT22;13860;52.370;6.764;2024-02-26T17:06:10;7.40;83.90
26099;DHT22;13860;52.370;6.764;2024-02-26T17:09:20;7.40;83.90
26099;DHT22;13860;52.370;6.764;2024-02-26T17:12:25;7.40;83.90
26099;DHT22;13860;52.370;6.764;2024-02-26T17:15:36;7.40;84.00
26099;DHT22;13860;52.370;6.764;2024-02-26T17:18:42;7.30;83.90
26099;DHT22;13860;52.370;6.764;2024-02-26T17:21:51;7.30;83.90
26099;DHT22;13860;52.370;6.764;2024-02-26T17:24:57;7.30;83.90
26099;DHT22;13860;52.370;6.764;2024-02-26T17:28:05;7.30;83.90
26099;DHT22;13860;52.370;6.764;2024-02-26T17:31:15;7.30;83.90
26099;DHT22;13860;52.370;6.764;2024-02-26T17:34:23;7.20;83.90
26099;DHT22;13860;52.370;6.764;2024-02-26T17:37:28;7.20;84.00
26099;DHT22;13860;52.370;6.764;2024-02-26T17:40:36;7.20;83.90
26099;DHT22;13860;52.370;6.764;2024-02-26T17:43:41;7.10;83.90
26099;DHT22;13860;52.370;6.764;2024-02-26T17:46:52;7.20;84.00
26099;DHT22;13860;52.370;6.764;2024-02-26T17:49:57;7.10;83.90
26099;DHT22;13860;52.370;6.764;2024-02-26T17:53:05;7.10;83.90
26099;DHT22;13860;52.370;6.764;2024-02-26T17:56:15;7.10;84.00
26099;DHT22;13860;52.370;6.764;2024-02-26T17:59:22;7.10;84.00
26099;DHT22;13860;52.370;6.764;2024-02-26T18:02:31;7.00;83.90
26099;DHT22;13860;52.370;6.764;2024-02-26T18:05:39;7.00;84.00
26099;DHT22;13860;52.370;6.764;2024-02-26T18:08:44;7.00;84.00
26099;DHT22;13860;52.370;6.764;2024-02-26T18:11:53;7.00;84.00
26099;DHT22;13860;52.370;6.764;2024-02-26T18:14:59;7.00;84.10
26099;DHT22;13860;52.370;6.764;2024-02-26T18:18:10;7.00;84.00
26099;DHT22;13860;52.370;6.764;2024-02-26T18:21:15;7.00;84.00
26099;DHT22;13860;52.370;6.764;2024-02-26T18:24:26;6.90;84.00
26099;DHT22;13860;52.370;6.764;2024-02-26T18:27:32;6.90;84.10
26099;DHT22;13860;52.370;6.764;2024-02-26T18:30:40;6.90;84.00
26099;DHT22;13860;52.370;6.764;2024-02-26T18:33:50;6.90;84.10
26099;DHT22;13860;52.370;6.764;2024-02-26T18:36:58;6.90;84.10
26099;DHT22;13860;52.370;6.764;2024-02-26T18:40:05;6.80;84.10
26099;DHT22;13860;52.370;6.764;2024-02-26T18:43:13;6.80;84.10
26099;DHT22;13860;52.370;6.764;2024-02-26T18:46:19;6.80;84.10
26099;DHT22;13860;52.370;6.764;2024-02-26T18:49:29;6.80;84.10
26099;DHT22;13860;52.370;6.764;2024-02-26T18:52:38;6.70;84.20
26099;DHT22;13860;52.370;6.764;2024-02-26T18:55:47;6.70;84.10
26099;DHT22;13860;52.370;6.764;2024-02-26T18:58:53;6.70;84.20
26099;DHT22;13860;52.370;6.764;2024-02-26T19:02:01;6.70;84.20
26099;DHT22;13860;52.370;6.764;2024-02-26T19:05:09;6.70;84.20
26099;DHT22;13860;52.370;6.764;2024-02-26T19:08:17;6.70;84.20
26099;DHT22;13860;52.370;6.764;2024-02-26T19:11:22;6.70;84.30
26099;DHT22;13860;52.370;6.764;2024-02-26T19:14:35;6.60;84.20
26099;DHT22;13860;52.370;6.764;2024-02-26T19:17:41;6.60;84.30
26099;DHT22;13860;52.370;6.764;2024-02-26T19:20:51;6.60;84.30
26099;DHT22;13860;52.370;6.764;2024-02-26T19:23:56;6.60;84.20
26099;DHT22;13860;52.370;6.764;2024-02-26T19:27:04;6.60;84.20
26099;DHT22;13860;52.370;6.764;2024-02-26T19:30:11;6.60;84.30
26099;DHT22;13860;52.370;6.764;2024-02-26T19:33:18;6.60;84.30
26099;DHT22;13860;52.370;6.764;2024-02-26T19:36:27;6.60;84.30
26099;DHT22;13860;52.370;6.764;2024-02-26T19:39:35;6.60;84.30
26099;DHT22;13860;52.370;6.764;2024-02-26T19:42:41;6.60;84.30
26099;DHT22;13860;52.370;6.764;2024-02-26T19:45:48;6.50;84.30
26099;DHT22;13860;52.370;6.764;2024-02-26T19:48:55;6.60;84.30
26099;DHT22;13860;52.370;6.764;2024-02-26T19:52:08;6.50;84.20
26099;DHT22;13860;52.370;6.764;2024-02-26T19:55:14;6.50;84.20
26099;DHT22;13860;52.370;6.764;2024-02-26T19:58:22;6.50;84.30
26099;DHT22;13860;52.370;6.764;2024-02-26T20:01:27;6.50;84.30
26099;DHT22;13860;52.370;6.764;2024-02-26T20:04:35;6.50;84.30